sensor_id;sensor_type;location;lat;lon;timestamp;pressure;altitude;pressure_sealevel;temperature;humidity
44872;BME280;30602;51.060;17.226;2023-04-08T00:00:49;101774.71;;;4.44;100.00
44872;BME280;30602;51.060;17.226;2023-04-08T00:05:11;101782.01;;;4.47;100.00
44872;BME280;30602;51.060;17.226;2023-04-08T00:09:10;101775.69;;;4.44;100.00
44872;BME280;30602;51.060;17.226;2023-04-08T00:13:12;101780.94;;;4.49;100.00
44872;BME280;30602;51.060;17.226;2023-04-08T00:17:41;101776.69;;;4.45;100.00
44872;BME280;30602;51.060;17.226;2023-04-08T00:21:26;101782.92;;;4.49;100.00
44872;BME280;30602;51.060;17.226;2023-04-08T00:25:30;101783.09;;;4.48;100.00
44872;BME280;30602;51.060;17.226;2023-04-08T00:32:52;101783.72;;;4.49;100.00
44872;BME280;30602;51.060;17.226;2023-04-08T00:36:39;101788.08;;;4.52;100.00
44872;BME280;30602;51.060;17.226;2023-04-08T00:40:17;101792.22;;;4.55;100.00
44872;BME280;30602;51.060;17.226;2023-04-08T00:43:56;101793.91;;;4.61;100.00
44872;BME280;30602;51.060;17.226;2023-04-08T00:48:09;101796.56;;;4.65;100.00
44872;BME280;30602;51.060;17.226;2023-04-08T00:51:29;101796.80;;;4.65;100.00
44872;BME280;30602;51.060;17.226;2023-04-08T00:55:18;101798.98;;;4.67;100.00
44872;BME280;30602;51.060;17.226;2023-04-08T00:59:00;101805.15;;;4.68;100.00
44872;BME280;30602;51.060;17.226;2023-04-08T01:03:24;101807.19;;;4.68;100.00
44872;BME280;30602;51.060;17.226;2023-04-08T01:15:06;101815.37;;;4.68;100.00
44872;BME280;30602;51.060;17.226;2023-04-08T01:19:21;101819.12;;;4.62;100.00
44872;BME280;30602;51.060;17.226;2023-04-08T01:23:36;101821.73;;;4.59;100.00
44872;BME280;30602;51.060;17.226;2023-04-08T01:27:00;101830.63;;;4.48;100.00
44872;BME280;30602;51.060;17.226;2023-04-08T01:30:24;101835.97;;;4.37;100.00
44872;BME280;30602;51.060;17.226;2023-04-08T01:38:02;101835.00;;;4.26;100.00
44872;BME280;30602;51.060;17.226;2023-04-08T01:41:59;101839.29;;;4.20;100.00
44872;BME280;30602;51.060;17.226;2023-04-08T01:45:30;101842.90;;;4.15;100.00
44872;BME280;30602;51.060;17.226;2023-04-08T01:49:52;101848.77;;;4.09;100.00
44872;BME280;30602;51.060;17.226;2023-04-08T01:53:23;101846.89;;;4.06;100.00
44872;BME280;30602;51.060;17.226;2023-04-08T01:57:05;101851.05;;;3.99;100.00
44872;BME280;30602;51.060;17.226;2023-04-08T02:00:54;101831.91;;;3.85;100.00
44872;BME280;30602;51.060;17.226;2023-04-08T02:04:41;101857.31;;;3.94;100.00
44872;BME280;30602;51.060;17.226;2023-04-08T02:08:11;101858.71;;;3.96;100.00
44872;BME280;30602;51.060;17.226;2023-04-08T02:11:44;101854.26;;;3.88;100.00
44872;BME280;30602;51.060;17.226;2023-04-08T02:15:43;101863.41;;;3.94;100.00
44872;BME280;30602;51.060;17.226;2023-04-08T02:19:50;101870.02;;;3.98;100.00
44872;BME280;30602;51.060;17.226;2023-04-08T02:23:21;101870.77;;;3.92;100.00
44872;BME280;30602;51.060;17.226;2023-04-08T02:26:47;101876.10;;;3.89;100.00
44872;BME280;30602;51.060;17.226;2023-04-08T02:30:29;101876.28;;;3.91;100.00
44872;BME280;30602;51.060;17.226;2023-04-08T02:33:58;101877.63;;;3.94;100.00
44872;BME280;30602;51.060;17.226;2023-04-08T02:37:40;101879.91;;;3.87;100.00
44872;BME280;30602;51.060;17.226;2023-04-08T02:41:10;101882.08;;;3.87;100.00
44872;BME280;30602;51.060;17.226;2023-04-08T02:44:49;101883.99;;;3.83;100.00
44872;BME280;30602;51.060;17.226;2023-04-08T02:48:31;101886.78;;;3.80;100.00
44872;BME280;30602;51.060;17.226;2023-04-08T02:52:12;101888.09;;;3.78;100.00
44872;BME280;30602;51.060;17.226;2023-04-08T02:55:53;101898.73;;;3.75;100.00
44872;BME280;30602;51.060;17.226;2023-04-08T02:59:44;101899.01;;;3.73;100.00
44872;BME280;30602;51.060;17.226;2023-04-08T03:03:31;101911.62;;;3.73;100.00
44872;BME280;30602;51.060;17.226;2023-04-08T03:06:50;101921.29;;;3.76;100.00
44872;BME280;30602;51.060;17.226;2023-04-08T03:10:42;101916.45;;;3.78;100.00
44872;BME280;30602;51.060;17.226;2023-04-08T03:14:17;101918.40;;;3.78;100.00
44872;BME280;30602;51.060;17.226;2023-04-08T03:18:06;101923.34;;;3.82;100.00
44872;BME280;30602;51.060;17.226;2023-04-08T03:21:47;101933.20;;;3.82;100.00
44872;BME280;30602;51.060;17.226;2023-04-08T03:25:50;101936.56;;;3.82;100.00
44872;BME280;30602;51.060;17.226;2023-04-08T03:29:22;101939.08;;;3.83;100.00
44872;BME280;30602;51.060;17.226;2023-04-08T03:33:14;101935.27;;;3.73;99.92
44872;BME280;30602;51.060;17.226;2023-04-08T03:41:00;101936.67;;;3.81;100.00
44872;BME280;30602;51.060;17.226;2023-04-08T03:44:27;101945.99;;;3.76;100.00
44872;BME280;30602;51.060;17.226;2023-04-08T03:48:00;101945.98;;;3.72;100.00
44872;BME280;30602;51.060;17.226;2023-04-08T03:51:40;101951.91;;;3.69;100.00
44872;BME280;30602;51.060;17.226;2023-04-08T03:55:01;101957.59;;;3.68;100.00
44872;BME280;30602;51.060;17.226;2023-04-08T03:58:56;101964.47;;;3.72;100.00
44872;BME280;30602;51.060;17.226;2023-04-08T04:02:21;101969.59;;;3.67;100.00
44872;BME280;30602;51.060;17.226;2023-04-08T04:06:15;101971.76;;;3.69;100.00
44872;BME280;30602;51.060;17.226;2023-04-08T04:10:07;101974.61;;;3.69;100.00
44872;BME280;30602;51.060;17.226;2023-04-08T04:14:03;101977.96;;;3.64;100.00
44872;BME280;30602;51.060;17.226;2023-04-08T04:17:59;101983.67;;;3.63;100.00
44872;BME280;30602;51.060;17.226;2023-04-08T04:21:31;101990.55;;;3.70;100.00
44872;BME280;30602;51.060;17.226;2023-04-08T04:25:31;101991.38;;;3.65;100.00
44872;BME280;30602;51.060;17.226;2023-04-08T04:29:32;101998.80;;;3.65;100.00
44872;BME280;30602;51.060;17.226;2023-04-08T04:33:07;101959.16;;;3.30;100.00
44872;BME280;30602;51.060;17.226;2023-04-08T04:36:52;102012.60;;;3.60;100.00
44872;BME280;30602;51.060;17.226;2023-04-08T04:40:21;102017.29;;;3.58;100.00
44872;BME280;30602;51.060;17.226;2023-04-08T04:43:50;102021.25;;;3.56;100.00
44872;BME280;30602;51.060;17.226;2023-04-08T04:47:54;102018.38;;;3.54;100.00
44872;BME280;30602;51.060;17.226;2023-04-08T04:51:40;102029.37;;;3.52;100.00
44872;BME280;30602;51.060;17.226;2023-04-08T04:55:07;102033.10;;;3.51;100.00
44872;BME280;30602;51.060;17.226;2023-04-08T04:58:55;102036.33;;;3.48;100.00
44872;BME280;30602;51.060;17.226;2023-04-08T05:02:28;102041.65;;;3.53;100.00
44872;BME280;30602;51.060;17.226;2023-04-08T05:06:13;102048.72;;;3.50;100.00
44872;BME280;30602;51.060;17.226;2023-04-08T05:09:37;102052.81;;;3.48;100.00
44872;BME280;30602;51.060;17.226;2023-04-08T05:13:46;102059.24;;;3.56;100.00
44872;BME280;30602;51.060;17.226;2023-04-08T05:17:28;102064.19;;;3.53;100.00
44872;BME280;30602;51.060;17.226;2023-04-08T05:21:22;102071.86;;;3.55;100.00
44872;BME280;30602;51.060;17.226;2023-04-08T05:25:26;102075.38;;;3.60;100.00
44872;BME280;30602;51.060;17.226;2023-04-08T05:28:45;102081.84;;;3.60;100.00
44872;BME280;30602;51.060;17.226;2023-04-08T05:32:42;102055.81;;;3.34;99.83
44872;BME280;30602;51.060;17.226;2023-04-08T05:36:29;102082.21;;;3.53;98.85
44872;BME280;30602;51.060;17.226;2023-04-08T05:40:37;102090.07;;;3.59;98.34
44872;BME280;30602;51.060;17.226;2023-04-08T05:44:01;102089.34;;;3.59;97.56
44872;BME280;30602;51.060;17.226;2023-04-08T05:48:17;102089.92;;;3.54;97.08
44872;BME280;30602;51.060;17.226;2023-04-08T05:51:57;102086.66;;;3.55;97.81
44872;BME280;30602;51.060;17.226;2023-04-08T05:55:36;102094.70;;;3.71;98.57
44872;BME280;30602;51.060;17.226;2023-04-08T05:59:12;102080.09;;;3.60;98.82
44872;BME280;30602;51.060;17.226;2023-04-08T06:02:50;102100.20;;;3.76;98.50
44872;BME280;30602;51.060;17.226;2023-04-08T06:06:14;102107.79;;;3.85;98.23
44872;BME280;30602;51.060;17.226;2023-04-08T06:09:42;102111.42;;;3.97;97.61
44872;BME280;30602;51.060;17.226;2023-04-08T06:13:34;102115.58;;;4.05;97.36
44872;BME280;30602;51.060;17.226;2023-04-08T06:17:23;102119.20;;;3.94;95.08
44872;BME280;30602;51.060;17.226;2023-04-08T06:20:45;102122.48;;;3.97;95.34
44872;BME280;30602;51.060;17.226;2023-04-08T06:24:19;102130.91;;;3.95;95.58
44872;BME280;30602;51.060;17.226;2023-04-08T06:27:41;102132.29;;;3.98;94.74
44872;BME280;30602;51.060;17.226;2023-04-08T06:31:32;102138.86;;;4.05;94.59
44872;BME280;30602;51.060;17.226;2023-04-08T06:34:52;102143.63;;;4.20;94.68
44872;BME280;30602;51.060;17.226;2023-04-08T06:38:33;102149.27;;;4.15;93.05
44872;BME280;30602;51.060;17.226;2023-04-08T06:42:12;102131.97;;;4.04;91.97
44872;BME280;30602;51.060;17.226;2023-04-08T06:45:40;102157.70;;;4.25;92.32
44872;BME280;30602;51.060;17.226;2023-04-08T06:49:03;102166.04;;;4.16;90.85
44872;BME280;30602;51.060;17.226;2023-04-08T06:53:18;102165.94;;;4.16;90.44
44872;BME280;30602;51.060;17.226;2023-04-08T06:57:07;102171.19;;;4.18;90.74
44872;BME280;30602;51.060;17.226;2023-04-08T07:00:50;102177.64;;;4.16;90.67
44872;BME280;30602;51.060;17.226;2023-04-08T07:04:39;102176.52;;;4.29;89.84
44872;BME280;30602;51.060;17.226;2023-04-08T07:08:48;102184.96;;;4.21;89.02
44872;BME280;30602;51.060;17.226;2023-04-08T07:12:24;102188.15;;;4.37;89.46
44872;BME280;30602;51.060;17.226;2023-04-08T07:15:47;102188.76;;;4.37;88.83
44872;BME280;30602;51.060;17.226;2023-04-08T07:19:30;102192.30;;;4.50;89.31
44872;BME280;30602;51.060;17.226;2023-04-08T07:23:12;102185.34;;;4.46;88.53
44872;BME280;30602;51.060;17.226;2023-04-08T07:27:24;102193.41;;;4.60;88.14
44872;BME280;30602;51.060;17.226;2023-04-08T07:34:34;102204.28;;;4.61;88.25
44872;BME280;30602;51.060;17.226;2023-04-08T07:37:59;102198.98;;;4.63;88.86
44872;BME280;30602;51.060;17.226;2023-04-08T07:41:29;102210.59;;;4.82;89.64
44872;BME280;30602;51.060;17.226;2023-04-08T07:45:16;102210.07;;;4.81;87.62
44872;BME280;30602;51.060;17.226;2023-04-08T07:48:51;102215.30;;;4.90;87.36
44872;BME280;30602;51.060;17.226;2023-04-08T07:52:28;102205.27;;;4.90;86.45
44872;BME280;30602;51.060;17.226;2023-04-08T07:56:29;102222.00;;;5.17;87.40
44872;BME280;30602;51.060;17.226;2023-04-08T08:00:46;102221.95;;;5.23;86.41
44872;BME280;30602;51.060;17.226;2023-04-08T08:04:24;102213.94;;;5.30;86.44
44872;BME280;30602;51.060;17.226;2023-04-08T08:08:02;102222.43;;;5.39;85.76
44872;BME280;30602;51.060;17.226;2023-04-08T08:11:56;102225.69;;;5.38;86.52
44872;BME280;30602;51.060;17.226;2023-04-08T08:15:19;102231.33;;;5.43;87.01
44872;BME280;30602;51.060;17.226;2023-04-08T08:19:13;102230.51;;;5.45;87.48
44872;BME280;30602;51.060;17.226;2023-04-08T08:23:03;102225.80;;;5.50;85.71
44872;BME280;30602;51.060;17.226;2023-04-08T08:26:55;102223.11;;;5.59;86.24
44872;BME280;30602;51.060;17.226;2023-04-08T08:30:56;102232.27;;;5.74;85.38
44872;BME280;30602;51.060;17.226;2023-04-08T08:34:26;102237.77;;;5.77;83.60
44872;BME280;30602;51.060;17.226;2023-04-08T08:38:07;102239.13;;;5.77;84.12
44872;BME280;30602;51.060;17.226;2023-04-08T08:41:33;102244.47;;;5.80;83.17
44872;BME280;30602;51.060;17.226;2023-04-08T08:44:56;102246.18;;;5.83;82.70
44872;BME280;30602;51.060;17.226;2023-04-08T08:48:44;102248.85;;;5.84;83.22
44872;BME280;30602;51.060;17.226;2023-04-08T08:52:28;102248.73;;;5.86;83.57
44872;BME280;30602;51.060;17.226;2023-04-08T08:56:08;102255.41;;;6.00;84.18
44872;BME280;30602;51.060;17.226;2023-04-08T08:59:30;102254.48;;;6.16;83.33
44872;BME280;30602;51.060;17.226;2023-04-08T09:03:18;102256.80;;;6.39;83.79
44872;BME280;30602;51.060;17.226;2023-04-08T09:06:39;102262.17;;;6.62;82.06
44872;BME280;30602;51.060;17.226;2023-04-08T09:10:50;102266.42;;;6.64;79.74
44872;BME280;30602;51.060;17.226;2023-04-08T09:14:35;102270.77;;;6.64;79.49
44872;BME280;30602;51.060;17.226;2023-04-08T09:26:23;102283.65;;;6.71;80.00
44872;BME280;30602;51.060;17.226;2023-04-08T09:30:14;102281.95;;;6.90;79.69
44872;BME280;30602;51.060;17.226;2023-04-08T09:33:59;102286.60;;;6.96;78.49
44872;BME280;30602;51.060;17.226;2023-04-08T09:37:24;102290.99;;;6.90;77.83
44872;BME280;30602;51.060;17.226;2023-04-08T09:41:06;102292.04;;;6.83;78.69
44872;BME280;30602;51.060;17.226;2023-04-08T09:44:32;102289.06;;;6.84;77.32
44872;BME280;30602;51.060;17.226;2023-04-08T09:53:12;102294.59;;;6.98;77.22
44872;BME280;30602;51.060;17.226;2023-04-08T09:57:39;102299.29;;;7.03;77.08
44872;BME280;30602;51.060;17.226;2023-04-08T10:05:37;102302.15;;;7.24;75.78
44872;BME280;30602;51.060;17.226;2023-04-08T10:09:42;102301.84;;;7.37;76.45
44872;BME280;30602;51.060;17.226;2023-04-08T10:13:03;102300.47;;;7.51;74.73
44872;BME280;30602;51.060;17.226;2023-04-08T10:16:42;102301.02;;;7.90;76.72
44872;BME280;30602;51.060;17.226;2023-04-08T10:20:40;102296.07;;;8.14;75.46
44872;BME280;30602;51.060;17.226;2023-04-08T10:24:30;102292.73;;;8.21;73.91
44872;BME280;30602;51.060;17.226;2023-04-08T10:27:55;102296.52;;;8.49;74.13
44872;BME280;30602;51.060;17.226;2023-04-08T10:31:41;102297.41;;;8.59;75.13
44872;BME280;30602;51.060;17.226;2023-04-08T10:35:28;102295.15;;;8.49;72.47
44872;BME280;30602;51.060;17.226;2023-04-08T10:38:54;102291.94;;;8.44;72.23
44872;BME280;30602;51.060;17.226;2023-04-08T10:42:15;102295.03;;;8.39;71.66
44872;BME280;30602;51.060;17.226;2023-04-08T10:45:40;102269.01;;;8.31;72.75
44872;BME280;30602;51.060;17.226;2023-04-08T10:49:03;102295.35;;;8.26;71.41
44872;BME280;30602;51.060;17.226;2023-04-08T10:52:31;102292.52;;;8.15;72.01
44872;BME280;30602;51.060;17.226;2023-04-08T10:56:14;102293.50;;;8.13;72.72
44872;BME280;30602;51.060;17.226;2023-04-08T10:59:54;102296.98;;;8.26;72.79
44872;BME280;30602;51.060;17.226;2023-04-08T11:03:42;102295.13;;;8.34;71.19
44872;BME280;30602;51.060;17.226;2023-04-08T11:07:05;102297.10;;;8.32;70.59
44872;BME280;30602;51.060;17.226;2023-04-08T11:10:38;102282.03;;;8.45;73.41
44872;BME280;30602;51.060;17.226;2023-04-08T11:14:04;102289.33;;;8.59;71.39
44872;BME280;30602;51.060;17.226;2023-04-08T11:18:17;102292.49;;;8.68;71.23
44872;BME280;30602;51.060;17.226;2023-04-08T11:23:54;102285.03;;;8.74;71.08
44872;BME280;30602;51.060;17.226;2023-04-08T11:28:06;102279.86;;;9.09;69.33
44872;BME280;30602;51.060;17.226;2023-04-08T11:31:35;102281.80;;;9.36;69.81
44872;BME280;30602;51.060;17.226;2023-04-08T11:35:00;102283.09;;;9.44;68.53
44872;BME280;30602;51.060;17.226;2023-04-08T11:41:03;102280.52;;;9.80;66.61
44872;BME280;30602;51.060;17.226;2023-04-08T11:44:49;102287.67;;;9.74;66.16
44872;BME280;30602;51.060;17.226;2023-04-08T11:49:24;102287.98;;;9.72;65.86
44872;BME280;30602;51.060;17.226;2023-04-08T11:58:21;102285.38;;;9.84;61.99
44872;BME280;30602;51.060;17.226;2023-04-08T12:08:04;102290.00;;;9.64;63.29
44872;BME280;30602;51.060;17.226;2023-04-08T12:11:59;102268.36;;;9.75;63.59
44872;BME280;30602;51.060;17.226;2023-04-08T12:16:34;102268.30;;;9.99;65.11
44872;BME280;30602;51.060;17.226;2023-04-08T12:20:11;102283.12;;;9.77;63.28
44872;BME280;30602;51.060;17.226;2023-04-08T12:23:36;102290.58;;;9.57;66.17
44872;BME280;30602;51.060;17.226;2023-04-08T12:27:03;102275.00;;;9.50;66.76
44872;BME280;30602;51.060;17.226;2023-04-08T12:30:30;102286.64;;;9.63;64.31
44872;BME280;30602;51.060;17.226;2023-04-08T12:33:59;102279.12;;;9.82;64.04
44872;BME280;30602;51.060;17.226;2023-04-08T12:37:25;102279.28;;;10.01;63.65
44872;BME280;30602;51.060;17.226;2023-04-08T12:40:46;102271.26;;;10.03;64.78
44872;BME280;30602;51.060;17.226;2023-04-08T12:45:23;102259.62;;;9.93;63.43
44872;BME280;30602;51.060;17.226;2023-04-08T12:49:27;102269.01;;;9.95;62.88
44872;BME280;30602;51.060;17.226;2023-04-08T12:52:21;102250.53;;;9.96;63.12
44872;BME280;30602;51.060;17.226;2023-04-08T12:56:50;102244.13;;;10.01;62.44
44872;BME280;30602;51.060;17.226;2023-04-08T13:00:45;102258.20;;;10.04;61.87
44872;BME280;30602;51.060;17.226;2023-04-08T13:05:30;102253.71;;;10.30;63.62
44872;BME280;30602;51.060;17.226;2023-04-08T13:09:03;102254.91;;;10.08;62.74
44872;BME280;30602;51.060;17.226;2023-04-08T13:14:17;102261.48;;;9.81;63.18
44872;BME280;30602;51.060;17.226;2023-04-08T13:18:08;102259.33;;;9.79;64.58
44872;BME280;30602;51.060;17.226;2023-04-08T13:22:20;102256.27;;;9.79;63.63
44872;BME280;30602;51.060;17.226;2023-04-08T13:26:49;102261.56;;;9.84;63.85
44872;BME280;30602;51.060;17.226;2023-04-08T13:32:41;102258.66;;;9.76;63.07
44872;BME280;30602;51.060;17.226;2023-04-08T13:36:28;102255.49;;;9.67;62.38
44872;BME280;30602;51.060;17.226;2023-04-08T13:40:14;102258.55;;;9.83;62.80
44872;BME280;30602;51.060;17.226;2023-04-08T13:43:38;102252.20;;;10.12;62.12
44872;BME280;30602;51.060;17.226;2023-04-08T13:47:00;102248.61;;;10.22;62.36
44872;BME280;30602;51.060;17.226;2023-04-08T13:50:40;102249.63;;;10.26;61.99
44872;BME280;30602;51.060;17.226;2023-04-08T13:54:08;102255.84;;;10.23;61.25
44872;BME280;30602;51.060;17.226;2023-04-08T13:57:46;102252.17;;;10.09;63.42
44872;BME280;30602;51.060;17.226;2023-04-08T14:01:37;102255.85;;;10.07;62.60
44872;BME280;30602;51.060;17.226;2023-04-08T14:05:19;102250.18;;;10.19;61.79
44872;BME280;30602;51.060;17.226;2023-04-08T14:08:52;102249.31;;;10.44;61.97
44872;BME280;30602;51.060;17.226;2023-04-08T14:12:28;102249.08;;;10.53;60.68
44872;BME280;30602;51.060;17.226;2023-04-08T14:15:57;102249.84;;;10.50;60.79
44872;BME280;30602;51.060;17.226;2023-04-08T14:19:54;102248.25;;;10.54;63.06
44872;BME280;30602;51.060;17.226;2023-04-08T14:23:34;102243.18;;;10.47;61.91
44872;BME280;30602;51.060;17.226;2023-04-08T14:26:59;102244.37;;;10.60;61.14
44872;BME280;30602;51.060;17.226;2023-04-08T14:30:43;102242.80;;;10.82;63.44
44872;BME280;30602;51.060;17.226;2023-04-08T14:34:16;102244.07;;;10.90;60.66
44872;BME280;30602;51.060;17.226;2023-04-08T14:38:13;102245.03;;;10.88;60.58
44872;BME280;30602;51.060;17.226;2023-04-08T14:41:59;102240.67;;;10.83;62.13
44872;BME280;30602;51.060;17.226;2023-04-08T14:45:35;102232.17;;;10.73;62.42
44872;BME280;30602;51.060;17.226;2023-04-08T14:49:01;102240.64;;;10.76;61.18
44872;BME280;30602;51.060;17.226;2023-04-08T14:52:40;102240.50;;;10.82;60.38
44872;BME280;30602;51.060;17.226;2023-04-08T14:56:07;102237.44;;;10.79;61.48
44872;BME280;30602;51.060;17.226;2023-04-08T14:59:46;102234.98;;;10.76;61.32
44872;BME280;30602;51.060;17.226;2023-04-08T15:03:08;102243.18;;;10.83;61.69
44872;BME280;30602;51.060;17.226;2023-04-08T15:06:28;102247.18;;;10.88;62.23
44872;BME280;30602;51.060;17.226;2023-04-08T15:09:57;102248.96;;;10.83;62.26
44872;BME280;30602;51.060;17.226;2023-04-08T15:15:06;102249.70;;;10.77;61.49
44872;BME280;30602;51.060;17.226;2023-04-08T15:18:27;102237.20;;;10.68;64.15
44872;BME280;30602;51.060;17.226;2023-04-08T15:21:50;102256.08;;;10.71;65.45
44872;BME280;30602;51.060;17.226;2023-04-08T15:25:24;102247.49;;;10.44;64.17
44872;BME280;30602;51.060;17.226;2023-04-08T15:29:03;102260.23;;;10.44;62.99
44872;BME280;30602;51.060;17.226;2023-04-08T15:33:13;102242.36;;;10.29;62.90
44872;BME280;30602;51.060;17.226;2023-04-08T15:36:49;102260.82;;;10.43;64.81
44872;BME280;30602;51.060;17.226;2023-04-08T15:40:59;102257.45;;;10.38;63.91
44872;BME280;30602;51.060;17.226;2023-04-08T15:44:20;102255.58;;;10.37;63.78
44872;BME280;30602;51.060;17.226;2023-04-08T15:49:11;102211.62;;;10.22;65.33
44872;BME280;30602;51.060;17.226;2023-04-08T15:54:13;102258.19;;;10.54;65.76
44872;BME280;30602;51.060;17.226;2023-04-08T15:58:35;102256.51;;;10.47;65.29
44872;BME280;30602;51.060;17.226;2023-04-08T16:01:59;102256.75;;;10.44;66.26
44872;BME280;30602;51.060;17.226;2023-04-08T16:05:51;102259.28;;;10.44;67.84
44872;BME280;30602;51.060;17.226;2023-04-08T16:09:37;102259.05;;;10.44;68.87
44872;BME280;30602;51.060;17.226;2023-04-08T16:13:45;102260.95;;;10.33;65.85
44872;BME280;30602;51.060;17.226;2023-04-08T16:17:51;102270.04;;;10.35;66.27
44872;BME280;30602;51.060;17.226;2023-04-08T16:21:46;102271.56;;;10.29;67.15
44872;BME280;30602;51.060;17.226;2023-04-08T16:25:39;102276.49;;;10.23;65.83
44872;BME280;30602;51.060;17.226;2023-04-08T16:29:54;102271.63;;;10.26;67.10
44872;BME280;30602;51.060;17.226;2023-04-08T16:34:00;102280.23;;;10.26;69.78
44872;BME280;30602;51.060;17.226;2023-04-08T16:38:18;102279.99;;;10.17;69.12
44872;BME280;30602;51.060;17.226;2023-04-08T16:42:15;102284.82;;;10.05;70.23
44872;BME280;30602;51.060;17.226;2023-04-08T16:45:45;102288.59;;;9.92;69.19
44872;BME280;30602;51.060;17.226;2023-04-08T16:51:07;102292.92;;;9.93;69.63
44872;BME280;30602;51.060;17.226;2023-04-08T16:54:53;102291.97;;;9.82;71.15
44872;BME280;30602;51.060;17.226;2023-04-08T16:58:13;102296.15;;;9.75;72.09
44872;BME280;30602;51.060;17.226;2023-04-08T17:01:48;102299.09;;;9.66;72.88
44872;BME280;30602;51.060;17.226;2023-04-08T17:05:08;102299.35;;;9.63;72.86
44872;BME280;30602;51.060;17.226;2023-04-08T17:08:50;102296.52;;;9.61;72.47
44872;BME280;30602;51.060;17.226;2023-04-08T17:12:44;102300.52;;;9.61;71.88
44872;BME280;30602;51.060;17.226;2023-04-08T17:16:27;102304.15;;;9.58;71.45
44872;BME280;30602;51.060;17.226;2023-04-08T17:19:57;102310.77;;;9.63;69.37
44872;BME280;30602;51.060;17.226;2023-04-08T17:28:07;102311.87;;;9.40;73.62
44872;BME280;30602;51.060;17.226;2023-04-08T17:32:11;102290.67;;;9.28;73.11
44872;BME280;30602;51.060;17.226;2023-04-08T17:36:08;102314.79;;;9.35;74.04
44872;BME280;30602;51.060;17.226;2023-04-08T17:39:55;102315.91;;;9.31;74.86
44872;BME280;30602;51.060;17.226;2023-04-08T17:43:54;102312.73;;;9.23;74.68
44872;BME280;30602;51.060;17.226;2023-04-08T17:47:41;102320.05;;;9.26;74.27
44872;BME280;30602;51.060;17.226;2023-04-08T17:51:18;102322.43;;;9.21;74.45
44872;BME280;30602;51.060;17.226;2023-04-08T17:54:46;102330.23;;;9.19;72.99
44872;BME280;30602;51.060;17.226;2023-04-08T17:58:23;102332.47;;;9.12;74.08
44872;BME280;30602;51.060;17.226;2023-04-08T18:02:04;102336.25;;;9.08;74.59
44872;BME280;30602;51.060;17.226;2023-04-08T18:05:34;102348.36;;;8.98;74.97
44872;BME280;30602;51.060;17.226;2023-04-08T18:09:47;102353.28;;;8.96;75.06
44872;BME280;30602;51.060;17.226;2023-04-08T18:13:30;102357.60;;;8.94;74.82
44872;BME280;30602;51.060;17.226;2023-04-08T18:16:55;102357.10;;;8.91;75.71
44872;BME280;30602;51.060;17.226;2023-04-08T18:20:56;102363.40;;;8.84;75.78
44872;BME280;30602;51.060;17.226;2023-04-08T18:24:44;102362.48;;;8.84;75.44
44872;BME280;30602;51.060;17.226;2023-04-08T18:28:57;102311.36;;;8.49;75.50
44872;BME280;30602;51.060;17.226;2023-04-08T18:32:24;102361.71;;;8.83;76.90
44872;BME280;30602;51.060;17.226;2023-04-08T18:35:53;102349.72;;;8.69;76.07
44872;BME280;30602;51.060;17.226;2023-04-08T18:39:43;102371.43;;;8.78;76.34
44872;BME280;30602;51.060;17.226;2023-04-08T18:43:44;102377.18;;;8.64;78.21
44872;BME280;30602;51.060;17.226;2023-04-08T18:47:10;102380.84;;;8.61;77.30
44872;BME280;30602;51.060;17.226;2023-04-08T18:50:36;102364.95;;;8.52;77.04
44872;BME280;30602;51.060;17.226;2023-04-08T18:54:26;102386.26;;;8.56;77.72
44872;BME280;30602;51.060;17.226;2023-04-08T18:58:28;102384.83;;;8.54;77.75
44872;BME280;30602;51.060;17.226;2023-04-08T19:01:52;102382.77;;;8.54;77.51
44872;BME280;30602;51.060;17.226;2023-04-08T19:06:05;102366.08;;;8.37;78.25
44872;BME280;30602;51.060;17.226;2023-04-08T19:09:58;102386.88;;;8.42;78.49
44872;BME280;30602;51.060;17.226;2023-04-08T19:13:30;102380.39;;;8.45;78.01
44872;BME280;30602;51.060;17.226;2023-04-08T19:16:59;102381.25;;;8.51;77.77
44872;BME280;30602;51.060;17.226;2023-04-08T19:21:00;102382.98;;;8.53;77.71
44872;BME280;30602;51.060;17.226;2023-04-08T19:24:58;102385.93;;;8.52;77.98
44872;BME280;30602;51.060;17.226;2023-04-08T19:28:32;102384.91;;;8.41;79.27
44872;BME280;30602;51.060;17.226;2023-04-08T19:32:04;102369.62;;;8.31;78.95
44872;BME280;30602;51.060;17.226;2023-04-08T19:36:32;102385.41;;;8.37;79.31
44872;BME280;30602;51.060;17.226;2023-04-08T19:40:28;102383.73;;;8.35;79.80
44872;BME280;30602;51.060;17.226;2023-04-08T19:43:54;102386.30;;;8.33;79.54
44872;BME280;30602;51.060;17.226;2023-04-08T19:47:24;102386.58;;;8.32;79.77
44872;BME280;30602;51.060;17.226;2023-04-08T19:50:49;102386.84;;;8.29;79.69
44872;BME280;30602;51.060;17.226;2023-04-08T19:54:19;102386.72;;;8.25;80.20
44872;BME280;30602;51.060;17.226;2023-04-08T19:58:03;102386.73;;;8.31;80.57
44872;BME280;30602;51.060;17.226;2023-04-08T20:01:28;102387.27;;;8.39;80.17
44872;BME280;30602;51.060;17.226;2023-04-08T20:05:12;102356.95;;;8.16;80.04
44872;BME280;30602;51.060;17.226;2023-04-08T20:09:10;102373.49;;;8.19;80.40
44872;BME280;30602;51.060;17.226;2023-04-08T20:12:38;102383.87;;;8.22;80.80
44872;BME280;30602;51.060;17.226;2023-04-08T20:16:27;102383.95;;;8.17;80.98
44872;BME280;30602;51.060;17.226;2023-04-08T20:19:57;102385.58;;;8.16;80.95
44872;BME280;30602;51.060;17.226;2023-04-08T20:23:34;102385.73;;;8.11;81.53
44872;BME280;30602;51.060;17.226;2023-04-08T20:27:38;102385.19;;;8.15;81.09
44872;BME280;30602;51.060;17.226;2023-04-08T20:31:29;102384.42;;;8.10;81.76